Time;durP1;ratioP1;P1;durP2;ratioP2;P2;SDS_P1;SDS_P2;PMS_P1;PMS_P2;Temp;Humidity;BMP_temperature;BMP_pressure;BME280_temperature;BME280_humidity;BME280_pressure;Samples;Min_cycle;Max_cycle;Signal;HPM_P1;HPM_P2
2022/05/28 00:01:08;;;;;;;22.20;5.75;;;;;;;8.45;100.00;102051.41;5136861;27;20088;-63
2022/05/28 00:03:34;;;;;;;21.15;5.35;;;;;;;8.47;100.00;102047.06;5139420;27;20031;-61
2022/05/28 00:06:00;;;;;;;24.00;5.60;;;;;;;8.45;100.00;102052.28;5139019;27;20019;-63
2022/05/28 00:08:26;;;;;;;20.27;5.63;;;;;;;8.40;100.00;102042.41;5137888;27;20108;-63
2022/05/28 00:10:55;;;;;;;21.85;5.40;;;;;;;8.37;100.00;102044.09;5142711;27;20027;-64
2022/05/28 00:13:21;;;;;;;22.85;5.15;;;;;;;8.37;100.00;102033.56;5146011;27;20031;-63
2022/05/28 00:15:46;;;;;;;22.05;5.60;;;;;;;8.37;100.00;102032.63;5144192;27;20019;-62
2022/05/28 00:18:11;;;;;;;22.10;5.28;;;;;;;8.36;100.00;102039.66;5144061;27;20023;-63
2022/05/28 00:20:37;;;;;;;20.48;5.63;;;;;;;8.36;100.00;102033.50;5142192;27;20024;-65
2022/05/28 00:23:04;;;;;;;20.52;5.57;;;;;;;8.33;100.00;102031.66;5142766;27;20045;-63
2022/05/28 00:25:29;;;;;;;20.20;5.35;;;;;;;8.34;100.00;102040.44;5141044;27;20023;-61
2022/05/28 00:27:55;;;;;;;24.52;5.78;;;;;;;8.34;100.00;102025.56;5123354;27;20046;-63
2022/05/28 00:30:21;;;;;;;21.15;5.30;;;;;;;8.40;100.00;102029.22;5145391;27;20106;-62
2022/05/28 00:32:46;;;;;;;20.30;5.47;;;;;;;8.43;100.00;102022.31;5141487;27;20027;-63
2022/05/28 00:35:15;;;;;;;21.80;5.63;;;;;;;8.57;100.00;102027.16;5140556;27;20047;-64
2022/05/28 00:37:42;;;;;;;23.33;5.80;;;;;;;8.60;100.00;102030.78;5136849;27;20038;-63
2022/05/28 00:40:12;;;;;;;23.15;6.13;;;;;;;8.69;100.00;102024.91;5142745;27;20029;-63
2022/05/28 00:42:37;;;;;;;22.27;5.97;;;;;;;8.77;100.00;102022.50;5144233;27;20041;-64
2022/05/28 00:45:03;;;;;;;21.52;6.03;;;;;;;8.88;100.00;102022.00;5144247;27;20109;-63
2022/05/28 00:47:30;;;;;;;25.17;6.35;;;;;;;8.95;100.00;102025.69;5136900;27;20039;-63
2022/05/28 00:49:55;;;;;;;23.27;5.82;;;;;;;8.99;100.00;102024.03;5143344;27;20385;-63
2022/05/28 00:52:24;;;;;;;23.08;6.15;;;;;;;8.99;100.00;102021.41;5138986;27;20022;-65
2022/05/28 00:54:50;;;;;;;21.42;5.80;;;;;;;8.93;100.00;102018.56;5141183;27;20030;-65
2022/05/28 00:57:16;;;;;;;24.67;6.30;;;;;;;8.89;100.00;102023.75;5141576;27;20027;-64
2022/05/28 00:59:43;;;;;;;22.83;6.00;;;;;;;8.83;100.00;102023.56;5141727;27;20023;-64
2022/05/28 01:02:22;;;;;;;21.73;5.78;;;;;;;8.81;100.00;102016.47;5137378;27;20027;-64
2022/05/28 01:04:56;;;;;;;22.88;6.32;;;;;;;8.73;100.00;102017.13;5139982;27;20026;-65
2022/05/28 01:07:46;;;;;;;22.75;6.65;;;;;;;8.71;100.00;102018.81;5121857;27;20469;-65
2022/05/28 01:10:17;;;;;;;22.38;6.60;;;;;;;8.64;100.00;102015.97;5117214;27;20051;-63
2022/05/28 01:13:08;;;;;;;22.08;6.28;;;;;;;8.64;100.00;102014.22;5137417;27;20076;-64
2022/05/28 01:15:46;;;;;;;23.40;6.65;;;;;;;8.58;100.00;102006.13;5143316;27;20023;-65
2022/05/28 01:18:16;;;;;;;23.73;6.47;;;;;;;8.57;100.00;102006.09;5118112;27;20018;-63
2022/05/28 01:20:49;;;;;;;22.67;6.78;;;;;;;8.56;100.00;102007.78;5140873;27;20413;-62
2022/05/28 01:23:23;;;;;;;23.70;6.90;;;;;;;8.52;100.00;102006.81;5135708;27;20023;-61
2022/05/28 01:26:16;;;;;;;23.20;7.15;;;;;;;8.48;100.00;101998.78;5134441;27;20023;-62
2022/05/28 01:28:47;;;;;;;23.92;6.82;;;;;;;8.48;100.00;102004.06;5134934;27;20039;-63
2022/05/28 01:31:15;;;;;;;23.92;7.28;;;;;;;8.47;100.00;102003.13;5140203;27;20028;-64
2022/05/28 01:33:43;;;;;;;21.50;6.25;;;;;;;8.44;100.00;101996.84;5121034;27;20057;-63
2022/05/28 01:36:12;;;;;;;24.40;6.82;;;;;;;8.46;100.00;102000.44;5140734;27;20499;-61
2022/05/28 01:38:41;;;;;;;24.05;7.13;;;;;;;8.43;100.00;101990.69;5138686;27;20043;-61
2022/05/28 01:41:07;;;;;;;23.35;6.90;;;;;;;8.40;100.00;101995.84;5140190;27;20027;-60
2022/05/28 01:43:40;;;;;;;24.00;6.85;;;;;;;8.36;100.00;101994.88;5141335;27;20030;-61
2022/05/28 01:46:06;;;;;;;25.90;6.90;;;;;;;8.34;100.00;101991.31;5137231;27;20110;-60
2022/05/28 01:48:33;;;;;;;23.83;7.13;;;;;;;8.28;100.00;101995.47;5137294;27;20130;-61
2022/05/28 01:51:01;;;;;;;24.05;6.75;;;;;;;8.28;100.00;101992.84;5135528;27;20027;-60
2022/05/28 01:56:17;;;;;;;23.08;7.18;;;;;;;8.23;100.00;101995.31;5023379;28;20026;-60
2022/05/28 01:58:42;;;;;;;23.55;7.45;;;;;;;8.20;100.00;101997.88;5024260;28;20049;-61
2022/05/28 02:01:09;;;;;;;23.30;6.85;;;;;;;8.19;100.00;101996.06;5022242;28;20135;-61
2022/05/28 02:03:37;;;;;;;22.92;7.05;;;;;;;8.14;100.00;102000.28;5022602;28;20068;-61
2022/05/28 02:06:03;;;;;;;23.33;6.90;;;;;;;8.17;100.00;102003.03;5023059;28;20327;-60
2022/05/28 02:08:35;;;;;;;23.45;6.68;;;;;;;8.22;100.00;102001.44;5020965;28;20473;-62
2022/05/28 02:11:25;;;;;;;25.77;6.70;;;;;;;8.20;100.00;101998.75;5023401;28;20030;-61
2022/05/28 02:14:14;;;;;;;23.70;6.70;;;;;;;8.26;100.00;102005.09;5025652;28;20132;-60
2022/05/28 02:16:43;;;;;;;23.27;6.82;;;;;;;8.26;100.00;102002.44;5021057;28;20397;-64
2022/05/28 02:19:17;;;;;;;23.35;6.40;;;;;;;8.22;100.00;102004.06;5019990;28;20117;-64
2022/05/28 02:21:45;;;;;;;23.65;7.00;;;;;;;8.17;100.00;101997.78;5022461;28;20149;-64
2022/05/28 02:24:31;;;;;;;23.60;6.82;;;;;;;8.13;100.00;101995.88;5022176;28;20099;-64
2022/05/28 02:27:02;;;;;;;23.58;6.80;;;;;;;8.07;100.00;101995.66;5020337;28;20046;-65
2022/05/28 02:29:28;;;;;;;25.40;6.88;;;;;;;8.01;100.00;102001.63;5025266;28;20524;-63
2022/05/28 02:31:54;;;;;;;22.67;6.93;;;;;;;7.96;100.00;101996.19;5020308;28;21464;-65
2022/05/28 02:34:19;;;;;;;23.17;7.35;;;;;;;7.92;100.00;101989.06;5132534;27;20032;-64
2022/05/28 02:36:45;;;;;;;22.27;6.75;;;;;;;7.91;100.00;101995.16;5139224;27;20084;-64
2022/05/28 02:39:11;;;;;;;23.00;7.28;;;;;;;7.82;100.00;101989.56;5140741;27;20023;-61
2022/05/28 02:41:36;;;;;;;23.63;6.88;;;;;;;7.82;100.00;101989.56;5141767;27;20031;-64
2022/05/28 02:44:02;;;;;;;24.42;6.82;;;;;;;7.76;100.00;101986.72;5138024;27;20113;-65
2022/05/28 02:46:28;;;;;;;24.65;7.80;;;;;;;7.73;100.00;101989.25;5136816;27;20029;-63
2022/05/28 02:48:53;;;;;;;24.63;7.10;;;;;;;7.72;100.00;101987.47;5120904;27;20026;-65
2022/05/28 02:51:21;;;;;;;25.95;7.85;;;;;;;7.68;100.00;101983.84;5137109;27;20191;-63
2022/05/28 02:53:48;;;;;;;23.27;7.10;;;;;;;7.63;100.00;101978.44;5139978;27;20030;-63
2022/05/28 02:56:15;;;;;;;24.67;7.10;;;;;;;7.59;100.00;101973.91;5134419;27;20047;-63
2022/05/28 02:58:40;;;;;;;22.52;7.15;;;;;;;7.57;100.00;101978.22;5134806;27;20377;-64
2022/05/28 03:01:26;;;;;;;23.45;7.50;;;;;;;7.56;100.00;101979.06;5137022;27;20110;-63
2022/05/28 03:03:52;;;;;;;24.13;7.25;;;;;;;7.54;100.00;101975.47;5138257;27;20184;-63
2022/05/28 03:06:18;;;;;;;23.42;7.40;;;;;;;7.54;100.00;101966.69;5141070;27;20031;-63
2022/05/28 03:08:43;;;;;;;27.65;7.53;;;;;;;7.52;100.00;101969.25;5137637;27;20125;-64
2022/05/28 03:11:09;;;;;;;23.23;7.18;;;;;;;7.53;100.00;101978.97;5138369;27;20055;-63
2022/05/28 03:13:35;;;;;;;24.35;7.78;;;;;;;7.55;100.00;101979.88;5136291;27;20037;-64
2022/05/28 03:16:00;;;;;;;23.88;7.68;;;;;;;7.51;100.00;101972.72;5138070;27;20075;-64
2022/05/28 03:18:26;;;;;;;23.80;7.68;;;;;;;7.51;100.00;101975.34;5134366;27;20023;-64
2022/05/28 03:20:52;;;;;;;23.92;7.18;;;;;;;7.49;100.00;101970.03;5140062;27;20022;-64
2022/05/28 03:23:17;;;;;;;24.73;7.35;;;;;;;7.52;100.00;101979.78;5131181;27;20034;-64
2022/05/28 03:25:42;;;;;;;23.58;7.05;;;;;;;7.58;100.00;101980.00;5140635;27;20119;-64
2022/05/28 03:28:08;;;;;;;23.17;6.85;;;;;;;7.64;100.00;101979.31;5134564;27;20039;-64
2022/05/28 03:30:33;;;;;;;24.67;6.63;;;;;;;7.71;100.00;101981.31;5137035;27;20030;-64
2022/05/28 03:32:58;;;;;;;23.55;6.63;;;;;;;7.74;100.00;101975.28;5137466;27;20027;-64
2022/05/28 03:35:24;;;;;;;23.92;7.13;;;;;;;7.79;100.00;101976.31;5139583;27;20106;-64
2022/05/28 03:37:49;;;;;;;25.75;7.03;;;;;;;7.82;100.00;101979.03;5141384;27;20059;-63
2022/05/28 03:40:14;;;;;;;24.77;7.03;;;;;;;7.84;100.00;101982.63;5137584;27;20061;-64
2022/05/28 03:42:40;;;;;;;21.92;6.35;;;;;;;7.87;100.00;101974.84;5140546;27;20046;-63
2022/05/28 03:45:05;;;;;;;23.15;6.60;;;;;;;7.87;100.00;101981.84;5141869;27;20030;-63
2022/05/28 03:47:31;;;;;;;24.85;6.90;;;;;;;7.88;100.00;101978.34;5142231;27;20415;-63
2022/05/28 03:49:57;;;;;;;26.65;6.80;;;;;;;7.88;100.00;101981.91;5140526;27;20020;-61
2022/05/28 03:52:22;;;;;;;25.77;6.72;;;;;;;7.91;100.00;101974.09;5142097;27;20035;-64
2022/05/28 03:54:47;;;;;;;22.17;6.50;;;;;;;7.93;100.00;101989.94;5145127;27;20115;-63
2022/05/28 03:57:22;;;;;;;23.25;6.10;;;;;;;7.98;100.00;101990.97;5144035;27;20035;-63
2022/05/28 03:59:48;;;;;;;23.98;6.57;;;;;;;8.05;100.00;101992.97;5143552;27;20035;-63
2022/05/28 04:02:13;;;;;;;23.58;6.20;;;;;;;8.06;100.00;101988.63;5144537;27;20027;-63
2022/05/28 04:04:38;;;;;;;22.38;6.18;;;;;;;8.08;100.00;101986.91;5141093;27;20462;-63
2022/05/28 04:07:04;;;;;;;22.50;6.50;;;;;;;8.12;100.00;101994.06;5140741;27;20031;-63
2022/05/28 04:09:29;;;;;;;21.88;6.00;;;;;;;8.19;100.00;101993.44;5142309;27;20019;-60
2022/05/28 04:11:55;;;;;;;23.52;6.32;;;;;;;8.22;100.00;101988.25;5144226;27;20058;-60
2022/05/28 04:14:20;;;;;;;23.50;6.30;;;;;;;8.21;100.00;101999.63;5141037;27;20046;-61
2022/05/28 04:16:45;;;;;;;22.67;6.10;;;;;;;8.16;100.00;101995.97;5145945;27;20026;-60
2022/05/28 04:19:11;;;;;;;24.17;6.20;;;;;;;8.13;100.00;101995.88;5140291;27;20043;-61
2022/05/28 04:21:36;;;;;;;22.65;6.43;;;;;;;8.11;100.00;102008.09;5123408;27;20027;-60
2022/05/28 04:24:03;;;;;;;22.73;6.47;;;;;;;8.09;100.00;101997.50;5145159;27;20038;-60
2022/05/28 04:26:29;;;;;;;23.35;6.75;;;;;;;8.05;100.00;102000.88;5137469;27;20048;-60
2022/05/28 04:28:54;;;;;;;22.98;6.78;;;;;;;8.06;100.00;102014.94;5146528;27;20023;-60
2022/05/28 04:31:20;;;;;;;23.63;6.93;;;;;;;8.03;100.00;102011.34;5139353;27;20038;-65
2022/05/28 04:33:45;;;;;;;23.90;6.80;;;;;;;8.02;100.00;102004.31;5140020;27;20027;-61
2022/05/28 04:36:11;;;;;;;22.63;6.80;;;;;;;8.03;100.00;102006.09;5139446;27;20029;-60
2022/05/28 04:38:36;;;;;;;24.42;7.15;;;;;;;8.07;100.00;102014.09;5144372;27;20034;-60
2022/05/28 04:41:01;;;;;;;24.73;7.53;;;;;;;8.10;100.00;102007.19;5141187;27;20019;-60
2022/05/28 04:43:26;;;;;;;22.02;7.10;;;;;;;8.15;100.00;102009.97;5142175;27;20034;-61
2022/05/28 04:45:52;;;;;;;22.90;6.60;;;;;;;8.21;100.00;102010.16;5142523;27;20054;-62
2022/05/28 04:48:17;;;;;;;23.15;6.90;;;;;;;8.26;100.00;102013.88;5146510;27;20510;-61
2022/05/28 04:50:43;;;;;;;22.90;6.78;;;;;;;8.35;100.00;102008.00;5142037;27;20027;-61
2022/05/28 04:53:08;;;;;;;24.30;6.35;;;;;;;8.45;100.00;102006.59;5140348;27;20027;-62
2022/05/28 04:55:33;;;;;;;23.45;6.30;;;;;;;8.54;100.00;102013.03;5143157;27;20030;-63
2022/05/28 04:57:59;;;;;;;23.60;6.07;;;;;;;8.63;100.00;102014.16;5139775;27;20074;-61
2022/05/28 05:00:26;;;;;;;24.20;6.25;;;;;;;8.66;100.00;102017.78;5143267;27;20023;-60
2022/05/28 05:02:51;;;;;;;24.20;5.68;;;;;;;8.74;100.00;102018.03;5137735;27;20424;-64
2022/05/28 05:05:17;;;;;;;22.40;5.90;;;;;;;8.81;100.00;102027.00;5141510;27;20019;-61
2022/05/28 05:07:43;;;;;;;21.15;5.38;;;;;;;8.89;100.00;102020.22;5132827;27;20168;-60
2022/05/28 05:10:09;;;;;;;23.10;5.28;;;;;;;9.01;100.00;102020.63;5145534;27;20109;-65
2022/05/28 05:12:34;;;;;;;22.40;5.13;;;;;;;9.13;100.00;102030.63;5143136;27;20030;-60
2022/05/28 05:15:00;;;;;;;22.88;4.93;;;;;;;9.26;100.00;102023.94;5141085;27;20418;-61
2022/05/28 05:17:25;;;;;;;22.45;5.05;;;;;;;9.34;100.00;102032.97;5145257;27;20030;-61
2022/05/28 05:19:54;;;;;;;23.58;4.95;;;;;;;9.41;100.00;102020.84;5139623;27;20120;-62
2022/05/28 05:22:20;;;;;;;19.35;4.38;;;;;;;9.50;100.00;102026.38;5145095;27;20045;-60
2022/05/28 05:24:45;;;;;;;21.58;4.72;;;;;;;9.57;100.00;102032.72;5139673;27;20027;-61
2022/05/28 05:27:11;;;;;;;19.02;4.32;;;;;;;9.62;100.00;102023.19;5138442;27;20122;-60
2022/05/28 05:29:38;;;;;;;22.52;4.43;;;;;;;9.72;100.00;102029.59;5137511;27;20134;-60
2022/05/28 05:32:04;;;;;;;21.52;4.13;;;;;;;9.80;100.00;102040.38;5142840;27;20376;-60
2022/05/28 05:34:30;;;;;;;19.63;3.70;;;;;;;9.91;100.00;102038.91;5141717;27;20024;-62
2022/05/28 05:36:56;;;;;;;18.48;3.30;;;;;;;9.97;100.00;102038.19;5140077;27;20022;-62
2022/05/28 05:39:21;;;;;;;19.63;3.78;;;;;;;10.05;100.00;102042.81;5138951;27;20023;-61
2022/05/28 05:41:46;;;;;;;18.60;3.10;;;;;;;10.12;100.00;102041.22;5140872;27;20034;-61
2022/05/28 05:44:12;;;;;;;17.35;3.17;;;;;;;10.20;100.00;102044.03;5142306;27;20484;-61
2022/05/28 05:46:42;;;;;;;15.43;3.10;;;;;;;10.24;100.00;102051.19;5138214;27;20072;-60
2022/05/28 05:49:08;;;;;;;18.30;2.97;;;;;;;10.30;100.00;102040.78;5142570;27;20030;-61
2022/05/28 05:51:39;;;;;;;18.15;2.90;;;;;;;10.43;100.00;102052.56;5139474;27;20035;-65
2022/05/28 05:54:04;;;;;;;16.52;2.95;;;;;;;10.47;100.00;102043.88;5142702;27;20031;-65
2022/05/28 05:56:30;;;;;;;18.17;3.05;;;;;;;10.51;100.00;102047.47;5139921;27;20023;-66
2022/05/28 05:58:55;;;;;;;11.43;2.63;;;;;;;10.57;100.00;102050.25;5139865;27;20122;-66
2022/05/28 06:01:20;;;;;;;17.52;2.90;;;;;;;10.59;100.00;102051.19;5140312;27;20051;-66
2022/05/28 06:03:46;;;;;;;14.55;2.70;;;;;;;10.65;100.00;102053.97;5141132;27;20736;-64
2022/05/28 06:06:14;;;;;;;13.38;2.70;;;;;;;10.75;100.00;102053.31;5141309;27;20023;-61
2022/05/28 06:08:40;;;;;;;16.02;2.95;;;;;;;10.87;100.00;102055.34;5142949;27;20031;-66
2022/05/28 06:11:05;;;;;;;19.13;2.70;;;;;;;11.12;100.00;102058.53;5141677;27;20019;-64
2022/05/28 06:13:31;;;;;;;17.60;2.92;;;;;;;11.22;100.00;102059.63;5140127;27;20062;-62
2022/05/28 06:15:56;;;;;;;15.18;2.85;;;;;;;11.31;100.00;102058.06;5141844;27;20019;-66
2022/05/28 06:18:22;;;;;;;17.02;2.55;;;;;;;11.36;100.00;102060.81;5134838;27;20027;-63
2022/05/28 06:20:49;;;;;;;15.73;2.60;;;;;;;11.37;100.00;102067.00;5143060;27;20102;-64
2022/05/28 06:23:18;;;;;;;18.48;2.72;;;;;;;11.39;100.00;102059.94;5135234;27;20026;-63
2022/05/28 06:25:43;;;;;;;14.98;2.70;;;;;;;11.42;100.00;102066.22;5138303;27;20367;-63
2022/05/28 06:28:09;;;;;;;15.23;2.80;;;;;;;11.53;100.00;102066.41;5141548;27;20050;-64
2022/05/28 06:30:34;;;;;;;15.73;2.55;;;;;;;11.63;100.00;102071.03;5140051;27;20026;-63
2022/05/28 06:33:00;;;;;;;15.45;2.80;;;;;;;11.78;100.00;102070.47;5138955;27;20054;-64
2022/05/28 06:35:25;;;;;;;16.23;2.65;;;;;;;11.79;100.00;102068.69;5139097;27;20023;-65
2022/05/28 06:37:52;;;;;;;14.10;2.42;;;;;;;11.82;100.00;102074.97;5138667;27;20023;-63
2022/05/28 06:40:18;;;;;;;16.40;2.72;;;;;;;11.82;100.00;102068.75;5139655;27;20019;-64
2022/05/28 06:42:45;;;;;;;14.68;2.95;;;;;;;11.84;100.00;102075.00;5140845;27;20031;-65
2022/05/28 06:45:14;;;;;;;17.25;2.90;;;;;;;11.86;100.00;102073.25;5138986;27;20034;-64
2022/05/28 06:47:41;;;;;;;18.48;3.08;;;;;;;11.92;100.00;102083.06;5122757;27;20031;-63
2022/05/28 06:52:51;;;;;;;16.48;2.60;;;;;;;11.84;100.00;102078.53;5136810;27;20497;-64
2022/05/28 06:55:16;;;;;;;14.38;2.60;;;;;;;11.96;100.00;102082.31;5138287;27;20034;-64
2022/05/28 06:57:41;;;;;;;15.35;2.83;;;;;;;12.07;100.00;102075.41;5139840;27;20030;-64
2022/05/28 07:00:07;;;;;;;15.43;2.65;;;;;;;12.28;100.00;102081.97;5140553;27;20045;-64
2022/05/28 07:02:33;;;;;;;16.50;3.08;;;;;;;12.38;100.00;102078.59;5137342;27;20026;-66
2022/05/28 07:04:58;;;;;;;15.20;2.97;;;;;;;12.50;100.00;102080.56;5138247;27;20027;-66
2022/05/28 07:07:23;;;;;;;17.23;3.13;;;;;;;12.61;100.00;102075.41;5118942;27;20022;-67
2022/05/28 07:09:48;;;;;;;16.58;2.83;;;;;;;12.72;100.00;102079.13;5115037;27;20465;-66
2022/05/28 07:12:14;;;;;;;14.60;2.80;;;;;;;12.64;100.00;102078.09;5139561;27;20080;-65
2022/05/28 07:14:40;;;;;;;13.80;2.88;;;;;;;12.66;100.00;102079.03;5139190;27;20046;-67
2022/05/28 07:17:05;;;;;;;16.60;3.00;;;;;;;12.71;100.00;102090.59;5139353;27;20018;-66
2022/05/28 07:19:30;;;;;;;15.10;2.83;;;;;;;12.63;100.00;102071.03;5135133;27;20023;-66
2022/05/28 07:21:56;;;;;;;13.95;2.78;;;;;;;12.47;100.00;102084.06;5141035;27;20027;-66
2022/05/28 07:24:21;;;;;;;15.07;2.88;;;;;;;12.31;100.00;102096.16;5137999;27;20477;-62
2022/05/28 07:26:53;;;;;;;13.95;3.03;;;;;;;12.36;100.00;102097.16;5139594;27;20128;-60
2022/05/28 07:29:19;;;;;;;16.70;3.40;;;;;;;12.51;100.00;102095.63;5141078;27;20089;-62
2022/05/28 07:31:45;;;;;;;14.40;3.10;;;;;;;12.55;100.00;102087.72;5137249;27;20289;-62
2022/05/28 07:34:11;;;;;;;13.18;3.20;;;;;;;12.59;100.00;102085.13;5139087;27;20026;-62
2022/05/28 07:36:36;;;;;;;17.63;3.20;;;;;;;12.70;100.00;102088.84;5136708;27;20023;-61
2022/05/28 07:39:03;;;;;;;12.15;3.05;;;;;;;12.87;100.00;102089.97;5140444;27;20426;-60
2022/05/28 07:41:28;;;;;;;18.13;3.30;;;;;;;12.98;100.00;102091.91;5139546;27;20023;-64
2022/05/28 07:43:55;;;;;;;17.10;2.95;;;;;;;12.98;100.00;102089.25;5137280;27;20536;-63
2022/05/28 07:46:25;;;;;;;15.00;3.13;;;;;;;13.12;100.00;102090.34;5134837;27;20031;-64
2022/05/28 07:48:52;;;;;;;14.77;2.85;;;;;;;13.33;100.00;102088.81;5130372;27;20433;-61
2022/05/28 07:51:17;;;;;;;15.23;3.00;;;;;;;13.42;100.00;102075.69;5138331;27;20072;-61
2022/05/28 07:53:43;;;;;;;15.60;2.80;;;;;;;13.62;100.00;102091.88;5137723;27;20454;-61
2022/05/28 07:56:09;;;;;;;15.20;3.00;;;;;;;13.62;100.00;102086.56;5137850;27;20083;-61
2022/05/28 07:58:35;;;;;;;15.32;2.85;;;;;;;13.48;100.00;102091.69;5136853;27;20027;-61
2022/05/28 08:01:01;;;;;;;16.30;2.92;;;;;;;13.33;100.00;102094.13;5136644;27;20466;-61
2022/05/28 08:03:26;;;;;;;11.50;2.40;;;;;;;13.36;100.00;102091.56;5138719;27;20038;-61
2022/05/28 08:05:54;;;;;;;10.88;2.50;;;;;;;13.57;100.00;102088.25;5137397;27;20034;-61
2022/05/28 08:08:21;;;;;;;17.58;2.63;;;;;;;13.71;100.00;102083.09;5137794;27;20054;-64
2022/05/28 08:10:48;;;;;;;16.23;2.80;;;;;;;14.00;100.00;102082.53;5139715;27;20053;-64
2022/05/28 08:13:16;;;;;;;17.60;2.58;;;;;;;14.44;96.84;102082.88;5135897;27;20031;-64
2022/05/28 08:15:44;;;;;;;14.02;2.72;;;;;;;14.90;99.66;102076.16;5137055;27;20586;-64
2022/05/28 08:18:11;;;;;;;14.50;2.60;;;;;;;15.31;91.93;102071.03;5140103;27;20037;-64
2022/05/28 08:23:20;;;;;;;13.45;2.50;;;;;;;15.47;89.32;102073.78;5136944;27;20062;-64
2022/05/28 08:25:47;;;;;;;12.80;2.35;;;;;;;15.19;92.01;102071.00;5139769;27;20110;-63
2022/05/28 08:28:15;;;;;;;13.98;2.53;;;;;;;14.66;95.24;102077.78;5137930;27;20042;-64
2022/05/28 08:30:40;;;;;;;15.57;2.58;;;;;;;14.35;92.36;102076.63;5139113;27;20019;-64
2022/05/28 08:33:08;;;;;;;15.15;2.67;;;;;;;14.07;93.87;102084.38;5143214;27;20451;-65
2022/05/28 08:35:34;;;;;;;14.15;2.70;;;;;;;14.00;92.81;102077.22;5143534;27;20039;-61
2022/05/28 08:38:10;;;;;;;15.43;2.90;;;;;;;13.87;94.88;102076.19;5143256;27;20423;-64
2022/05/28 08:40:43;;;;;;;11.45;2.42;;;;;;;13.87;95.57;102079.72;5142890;27;20103;-65
2022/05/28 08:43:11;;;;;;;13.75;2.70;;;;;;;13.77;91.90;102069.88;5143377;27;20071;-64
2022/05/28 08:45:37;;;;;;;14.63;2.63;;;;;;;13.72;91.43;102074.28;5141373;27;20027;-64
2022/05/28 08:48:04;;;;;;;18.67;3.00;;;;;;;13.68;93.66;102075.97;5138524;27;20513;-63
2022/05/28 08:50:33;;;;;;;15.73;2.80;;;;;;;13.90;93.14;102074.44;5144718;27;20027;-64
2022/05/28 08:53:05;;;;;;;16.02;2.65;;;;;;;14.10;91.70;102084.38;5140785;27;20046;-63
2022/05/28 08:55:36;;;;;;;16.20;2.75;;;;;;;14.17;93.92;102085.31;5143783;27;20460;-63
2022/05/28 08:58:11;;;;;;;14.60;2.55;;;;;;;14.60;90.06;102081.25;5140484;27;20034;-64
2022/05/28 09:00:54;;;;;;;13.10;2.60;;;;;;;15.24;86.98;102082.53;5140688;27;20015;-64
2022/05/28 09:03:26;;;;;;;11.23;2.30;;;;;;;15.72;83.83;102073.84;5124543;27;20485;-63
2022/05/28 09:06:02;;;;;;;14.15;2.50;;;;;;;15.75;79.31;102076.50;5138660;27;20415;-63
2022/05/28 09:08:36;;;;;;;12.05;2.45;;;;;;;16.00;80.45;102075.72;5142084;27;20144;-64
2022/05/28 09:11:07;;;;;;;14.90;2.38;;;;;;;16.12;78.13;102073.91;5139465;27;20090;-63
2022/05/28 09:13:39;;;;;;;8.85;2.28;;;;;;;16.30;77.71;102076.59;5141447;27;20403;-62
2022/05/28 09:16:07;;;;;;;13.95;2.50;;;;;;;16.39;76.87;102081.94;5143045;27;20030;-60
2022/05/28 09:18:37;;;;;;;14.32;2.50;;;;;;;16.41;75.90;102073.97;5139705;27;20015;-61
2022/05/28 09:21:05;;;;;;;14.25;2.40;;;;;;;16.09;75.40;102076.59;5144083;27;20094;-60
2022/05/28 09:23:43;;;;;;;13.55;2.92;;;;;;;15.89;77.13;102074.81;5140304;27;20038;-61
2022/05/28 09:26:09;;;;;;;14.57;2.40;;;;;;;15.79;77.83;102068.56;5138265;27;20031;-61
2022/05/28 09:28:50;;;;;;;14.50;2.38;;;;;;;15.55;81.77;102068.47;5132562;27;20461;-60
2022/05/28 09:31:56;;;;;;;13.10;2.30;;;;;;;15.32;78.73;102066.63;5139284;27;20019;-60
2022/05/28 09:34:46;;;;;;;10.90;2.20;;;;;;;15.51;75.47;102064.91;5034631;28;20120;-61
2022/05/28 09:37:34;;;;;;;13.73;2.50;;;;;;;15.75;71.83;102066.72;5031054;28;20033;-62
2022/05/28 09:40:07;;;;;;;12.93;2.40;;;;;;;16.16;66.93;102065.94;5038965;28;20492;-61
2022/05/28 09:42:38;;;;;;;12.88;2.30;;;;;;;17.02;65.91;102054.28;5029801;28;20061;-61
2022/05/28 09:45:31;;;;;;;11.90;2.20;;;;;;;17.55;60.95;102062.09;5036092;28;20079;-63
2022/05/28 09:47:56;;;;;;;9.60;2.22;;;;;;;17.11;59.60;102056.03;5036791;28;20036;-63
2022/05/28 09:50:28;;;;;;;12.15;2.30;;;;;;;17.25;59.44;102059.53;5036833;28;20021;-64
2022/05/28 09:55:53;;;;;;;9.90;2.20;;;;;;;18.24;59.02;102052.72;5035889;28;20091;-62
2022/05/28 09:58:23;;;;;;;10.75;2.20;;;;;;;18.03;56.98;102045.75;5033036;28;20496;-64
2022/05/28 10:00:49;;;;;;;14.05;2.35;;;;;;;17.29;60.63;102055.06;5037278;28;20469;-61
2022/05/28 10:06:16;;;;;;;13.27;2.45;;;;;;;17.54;58.42;102054.94;5038528;28;20163;-64
2022/05/28 10:08:41;;;;;;;17.00;2.40;;;;;;;16.61;63.06;102057.91;5035439;28;20061;-65
2022/05/28 10:11:14;;;;;;;17.67;2.72;;;;;;;16.48;63.23;102056.13;5071548;27;20377;-63
2022/05/28 10:13:46;;;;;;;15.02;2.50;;;;;;;18.51;59.73;102059.59;5143192;27;20031;-61
2022/05/28 10:16:13;;;;;;;14.48;2.50;;;;;;;21.02;46.75;102048.84;5141051;27;20474;-66
2022/05/28 10:18:44;;;;;;;11.77;2.47;;;;;;;22.87;36.20;102051.63;5145958;27;20037;-62
2022/05/28 10:21:14;;;;;;;12.27;2.10;;;;;;;23.74;33.25;102055.38;5140060;27;20465;-62
2022/05/28 10:23:42;;;;;;;11.00;2.20;;;;;;;22.96;30.99;102038.78;5138555;27;20039;-63
2022/05/28 10:26:29;;;;;;;14.60;2.28;;;;;;;23.53;33.61;102048.81;5136812;27;20343;-63
2022/05/28 10:29:00;;;;;;;11.20;2.20;;;;;;;24.43;30.48;102042.25;5139490;27;20385;-63
2022/05/28 10:31:38;;;;;;;7.72;2.00;;;;;;;25.83;29.93;102041.53;5141400;27;20022;-63
2022/05/28 10:34:05;;;;;;;12.20;2.10;;;;;;;25.95;27.97;102041.97;5141178;27;20121;-64
2022/05/28 10:36:33;;;;;;;13.05;2.25;;;;;;;24.11;27.58;102040.69;5137599;27;20026;-63
2022/05/28 10:39:10;;;;;;;11.27;2.00;;;;;;;22.17;31.50;102048.03;5135251;27;20074;-63
2022/05/28 10:41:37;;;;;;;8.45;2.17;;;;;;;22.31;31.47;102039.63;5141037;27;20047;-61
2022/05/28 10:44:04;;;;;;;14.05;2.40;;;;;;;20.80;33.27;102043.88;5137666;27;20023;-63
2022/05/28 10:47:28;;;;;;;11.88;2.20;;;;;;;20.62;33.75;102033.44;5123978;27;20118;-63
2022/05/28 10:50:05;;;;;;;12.80;2.30;;;;;;;19.07;36.53;102046.53;5013626;28;20037;-64
2022/05/28 10:52:48;;;;;;;12.98;2.20;;;;;;;19.10;36.14;102043.81;5016670;28;20406;-64
2022/05/28 10:55:42;;;;;;;13.25;2.35;;;;;;;22.17;32.35;102041.78;5016357;28;20037;-64
2022/05/28 10:58:07;;;;;;;14.07;2.40;;;;;;;25.09;27.58;102030.00;5014759;28;20092;-64
2022/05/28 11:00:56;;;;;;;11.10;2.00;;;;;;;25.94;26.37;102043.81;5016326;28;20064;-64
2022/05/28 11:03:30;;;;;;;12.38;2.13;;;;;;;26.03;25.87;102045.28;5011903;28;20185;-64
2022/05/28 11:06:33;;;;;;;9.32;1.95;;;;;;;27.78;24.66;102041.00;5008867;28;20065;-65
2022/05/28 11:09:08;;;;;;;;;;;;;;;28.47;23.08;102037.53;4987435;28;20029;-64
2022/05/28 11:11:57;;;;;;;15.55;2.22;;;;;;;25.61;25.94;102037.94;5016144;28;19921;-64
2022/05/28 11:14:54;;;;;;;13.48;2.30;;;;;;;26.60;25.18;102031.97;5017358;28;20037;-62
2022/05/28 11:17:45;;;;;;;11.57;2.13;;;;;;;27.56;24.32;102042.06;5012374;28;20117;-64
2022/05/28 11:20:14;;;;;;;13.60;1.95;;;;;;;26.73;23.68;102040.47;5004164;28;20161;-65
2022/05/28 11:22:47;;;;;;;8.98;2.00;;;;;;;25.44;24.59;102030.50;5016275;28;20034;-62
2022/05/28 11:25:18;;;;;;;10.95;2.10;;;;;;;25.91;25.23;102035.81;5043707;27;20040;-62
2022/05/28 11:27:58;;;;;;;8.30;2.00;;;;;;;26.54;24.28;102025.00;5136382;27;20097;-63
2022/05/28 11:30:41;;;;;;;9.90;2.10;;;;;;;26.54;25.35;102026.84;5138341;27;20034;-62
2022/05/28 11:33:28;;;;;;;9.32;2.00;;;;;;;26.90;23.66;102016.19;5135766;27;20065;-64
2022/05/28 11:35:59;;;;;;;11.40;2.10;;;;;;;25.26;25.54;102021.25;5137852;27;20066;-64
2022/05/28 11:38:49;;;;;;;10.23;2.20;;;;;;;25.94;25.36;102016.72;5121591;27;20114;-65
2022/05/28 11:41:24;;;;;;;9.20;1.90;;;;;;;26.78;23.91;102011.31;5137564;27;20065;-64